createdAt,value
2023-05-20T00:00:38.821Z,1021.68
2023-05-20T00:01:38.820Z,1021.70
2023-05-20T00:02:38.931Z,1021.70
2023-05-20T00:03:39.025Z,1021.70
2023-05-20T00:04:38.847Z,1021.68
2023-05-20T00:05:38.853Z,1021.70
2023-05-20T00:06:38.798Z,1021.67
2023-05-20T00:07:38.787Z,1021.69
2023-05-20T00:08:38.828Z,1021.69
2023-05-20T00:09:38.782Z,1021.67
2023-05-20T00:10:38.780Z,1021.70
2023-05-20T00:11:38.777Z,1021.69
2023-05-20T00:12:38.780Z,1021.72
2023-05-20T00:13:38.773Z,1021.71
2023-05-20T00:14:38.777Z,1021.70
2023-05-20T00:15:38.782Z,1021.66
2023-05-20T00:16:38.807Z,1021.65
2023-05-20T00:17:38.827Z,1021.66
2023-05-20T00:18:38.836Z,1021.64
2023-05-20T00:19:38.778Z,1021.64
2023-05-20T00:20:38.755Z,1021.64
2023-05-20T00:21:38.760Z,1021.65
2023-05-20T00:22:38.755Z,1021.67
2023-05-20T00:23:38.764Z,1021.63
2023-05-20T00:24:38.753Z,1021.66
2023-05-20T00:25:38.752Z,1021.61
2023-05-20T00:26:38.735Z,1021.63
2023-05-20T00:27:38.738Z,1021.65
2023-05-20T00:28:38.734Z,1021.63
2023-05-20T00:29:38.763Z,1021.62
2023-05-20T00:30:38.726Z,1021.65
2023-05-20T00:31:38.794Z,1021.62
2023-05-20T00:32:38.751Z,1021.64
2023-05-20T00:33:38.733Z,1021.61
2023-05-20T00:34:38.722Z,1021.63
2023-05-20T00:35:38.721Z,1021.62
2023-05-20T00:36:38.736Z,1021.60
2023-05-20T00:37:38.702Z,1021.65
2023-05-20T00:38:38.702Z,1021.61
2023-05-20T00:39:38.704Z,1021.61
2023-05-20T00:40:38.728Z,1021.62
2023-05-20T00:41:38.694Z,1021.65
2023-05-20T00:42:38.694Z,1021.66
2023-05-20T00:43:38.693Z,1021.63
2023-05-20T00:44:38.695Z,1021.62
2023-05-20T00:45:38.776Z,1021.66
2023-05-20T00:46:38.732Z,1021.67
2023-05-20T00:47:38.707Z,1021.66
2023-05-20T00:48:38.674Z,1021.62
2023-05-20T00:49:38.676Z,1021.62
2023-05-20T00:50:38.666Z,1021.62
2023-05-20T00:51:38.681Z,1021.66
2023-05-20T00:52:38.677Z,1021.65
2023-05-20T00:53:38.664Z,1021.60
2023-05-20T00:54:38.665Z,1021.65
2023-05-20T00:55:38.681Z,1021.62
2023-05-20T00:56:38.662Z,1021.62
2023-05-20T00:57:38.666Z,1021.59
2023-05-20T00:58:38.640Z,1021.60
2023-05-20T00:59:38.640Z,1021.60
2023-05-20T01:00:39.242Z,1021.57
2023-05-20T01:01:38.705Z,1021.61
2023-05-20T01:02:38.750Z,1021.58
2023-05-20T01:03:38.903Z,1021.65
2023-05-20T01:04:38.627Z,1021.61
2023-05-20T01:05:41.414Z,1021.56
2023-05-20T01:06:38.625Z,1021.57
2023-05-20T01:07:38.620Z,1021.55
2023-05-20T01:08:38.620Z,1021.52
2023-05-20T01:09:38.613Z,1021.46
2023-05-20T01:10:38.614Z,1021.48
2023-05-20T01:11:38.613Z,1021.49
2023-05-20T01:12:38.610Z,1021.51
2023-05-20T01:13:38.599Z,1021.48
2023-05-20T01:14:38.587Z,1021.46
2023-05-20T01:15:38.734Z,1021.44
2023-05-20T01:16:38.680Z,1021.43
2023-05-20T01:17:38.627Z,1021.50
2023-05-20T01:18:38.668Z,1021.38
2023-05-20T01:19:38.600Z,1021.43
2023-05-20T01:20:38.565Z,1021.41
2023-05-20T01:21:38.570Z,1021.41
2023-05-20T01:22:38.589Z,1021.40
2023-05-20T01:23:38.574Z,1021.39
2023-05-20T01:24:38.572Z,1021.40
2023-05-20T01:25:38.563Z,1021.40
2023-05-20T01:26:38.584Z,1021.38
2023-05-20T01:27:38.561Z,1021.40
2023-05-20T01:28:38.550Z,1021.38
2023-05-20T01:29:38.550Z,1021.38
2023-05-20T01:30:38.543Z,1021.38
2023-05-20T01:31:38.570Z,1021.37
2023-05-20T01:32:38.622Z,1021.37
2023-05-20T01:33:38.533Z,1021.40
2023-05-20T01:34:38.530Z,1021.33
2023-05-20T01:35:38.536Z,1021.40
2023-05-20T01:36:38.531Z,1021.39
2023-05-20T01:37:38.542Z,1021.40
2023-05-20T01:38:38.536Z,1021.38
2023-05-20T01:39:38.539Z,1021.38
2023-05-20T01:40:38.516Z,1021.36
2023-05-20T01:41:38.512Z,1021.37
2023-05-20T01:42:38.543Z,1021.39
2023-05-20T01:43:38.510Z,1021.33
2023-05-20T01:44:38.509Z,1021.27
2023-05-20T01:45:38.501Z,1021.28
2023-05-20T01:46:38.551Z,1021.29
2023-05-20T01:47:38.541Z,1021.29
2023-05-20T01:48:38.517Z,1021.29
2023-05-20T01:49:38.566Z,1021.30
2023-05-20T01:50:38.480Z,1021.30
2023-05-20T01:51:38.477Z,1021.29
2023-05-20T01:52:38.481Z,1021.31
2023-05-20T01:53:38.491Z,1021.30
2023-05-20T01:54:38.477Z,1021.25
2023-05-20T01:55:38.469Z,1021.22
2023-05-20T01:56:38.473Z,1021.24
2023-05-20T01:57:38.472Z,1021.23
2023-05-20T01:58:38.489Z,1021.25
2023-05-20T01:59:38.456Z,1021.20
2023-05-20T02:00:38.454Z,1021.24
2023-05-20T02:01:38.475Z,1021.22
2023-05-20T02:02:38.723Z,1021.19
2023-05-20T02:03:38.446Z,1021.22
2023-05-20T02:04:38.474Z,1021.21
2023-05-20T02:05:38.727Z,1021.25
2023-05-20T02:06:38.453Z,1021.28
2023-05-20T02:07:38.435Z,1021.25
2023-05-20T02:08:38.456Z,1021.25
2023-05-20T02:09:38.438Z,1021.22
2023-05-20T02:10:38.426Z,1021.25
2023-05-20T02:11:38.417Z,1021.26
2023-05-20T02:12:38.426Z,1021.21
2023-05-20T02:13:38.430Z,1021.23
2023-05-20T02:14:38.460Z,1021.20
2023-05-20T02:15:38.402Z,1021.20
2023-05-20T02:16:38.557Z,1021.14
2023-05-20T02:17:38.423Z,1021.16
2023-05-20T02:18:38.403Z,1021.15
2023-05-20T02:19:38.417Z,1021.14
2023-05-20T02:20:38.411Z,1021.18
2023-05-20T02:21:38.411Z,1021.17
2023-05-20T02:22:38.423Z,1021.17
2023-05-20T02:23:38.390Z,1021.20
2023-05-20T02:24:38.417Z,1021.17
2023-05-20T02:25:38.380Z,1021.21
2023-05-20T02:26:38.385Z,1021.22
2023-05-20T02:27:38.368Z,1021.26
2023-05-20T02:28:38.363Z,1021.21
2023-05-20T02:29:38.363Z,1021.14
2023-05-20T02:30:38.404Z,1021.17
2023-05-20T02:31:38.392Z,1021.11
2023-05-20T02:32:38.398Z,1021.16
2023-05-20T02:33:38.383Z,1021.16
2023-05-20T02:34:38.358Z,1021.15
2023-05-20T02:35:38.339Z,1021.18
2023-05-20T02:36:38.349Z,1021.13
2023-05-20T02:37:38.347Z,1021.17
2023-05-20T02:38:38.329Z,1021.16
2023-05-20T02:39:38.336Z,1021.18
2023-05-20T02:40:38.330Z,1021.19
2023-05-20T02:41:38.333Z,1021.20
2023-05-20T02:42:38.322Z,1021.24
2023-05-20T02:43:38.313Z,1021.20
2023-05-20T02:44:38.317Z,1021.25
2023-05-20T02:45:38.369Z,1021.25
2023-05-20T02:46:38.385Z,1021.23
2023-05-20T02:47:38.348Z,1021.26
2023-05-20T02:48:38.302Z,1021.24
2023-05-20T02:49:38.303Z,1021.24
2023-05-20T02:50:38.304Z,1021.25
2023-05-20T02:51:38.291Z,1021.28
2023-05-20T02:52:38.301Z,1021.28
2023-05-20T02:53:38.290Z,1021.25
2023-05-20T02:54:38.307Z,1021.27
2023-05-20T02:55:38.276Z,1021.25
2023-05-20T02:56:38.269Z,1021.28
2023-05-20T02:57:38.311Z,1021.24
2023-05-20T02:58:38.269Z,1021.27
2023-05-20T02:59:38.270Z,1021.28
2023-05-20T03:00:38.261Z,1021.26
2023-05-20T03:01:38.356Z,1021.22
2023-05-20T03:02:38.276Z,1021.26
2023-05-20T03:03:38.253Z,1021.22
2023-05-20T03:04:38.291Z,1021.27
2023-05-20T03:05:38.260Z,1021.24
2023-05-20T03:06:38.256Z,1021.22
2023-05-20T03:07:38.245Z,1021.27
2023-05-20T03:08:38.251Z,1021.26
2023-05-20T03:09:38.252Z,1021.26
2023-05-20T03:10:38.254Z,1021.30
2023-05-20T03:11:38.235Z,1021.36
2023-05-20T03:12:38.225Z,1021.33
2023-05-20T03:13:38.238Z,1021.33
2023-05-20T03:14:38.230Z,1021.37
2023-05-20T03:15:38.247Z,1021.37
2023-05-20T03:16:38.224Z,1021.37
2023-05-20T03:17:38.286Z,1021.39
2023-05-20T03:18:38.220Z,1021.37
2023-05-20T03:19:38.221Z,1021.41
2023-05-20T03:20:38.290Z,1021.43
2023-05-20T03:21:38.203Z,1021.46
2023-05-20T03:22:38.212Z,1021.44
2023-05-20T03:23:38.189Z,1021.41
2023-05-20T03:24:38.200Z,1021.42
2023-05-20T03:25:38.186Z,1021.38
2023-05-20T03:26:38.184Z,1021.37
2023-05-20T03:27:38.172Z,1021.38
2023-05-20T03:28:38.176Z,1021.41
2023-05-20T03:29:38.174Z,1021.41
2023-05-20T03:30:38.166Z,1021.38
2023-05-20T03:31:38.298Z,1021.44
2023-05-20T03:32:38.226Z,1021.39
2023-05-20T03:33:38.148Z,1021.39
2023-05-20T03:34:38.168Z,1021.40
2023-05-20T03:35:38.164Z,1021.39
2023-05-20T03:36:38.166Z,1021.39
2023-05-20T03:37:38.164Z,1021.38
2023-05-20T03:38:38.149Z,1021.39
2023-05-20T03:39:38.151Z,1021.38
2023-05-20T03:40:38.145Z,1021.37
2023-05-20T03:41:38.167Z,1021.41
2023-05-20T03:42:38.144Z,1021.42
2023-05-20T03:43:38.120Z,1021.42
2023-05-20T03:44:38.115Z,1021.43
2023-05-20T03:45:38.115Z,1021.43
2023-05-20T03:46:38.137Z,1021.42
2023-05-20T03:47:38.119Z,1021.42
2023-05-20T03:48:38.116Z,1021.42
2023-05-20T03:49:38.099Z,1021.42
2023-05-20T03:50:38.118Z,1021.43
2023-05-20T03:51:38.091Z,1021.42
2023-05-20T03:52:38.090Z,1021.43
2023-05-20T03:53:38.090Z,1021.45
2023-05-20T03:54:38.095Z,1021.44
2023-05-20T03:55:38.096Z,1021.46
2023-05-20T03:56:38.194Z,1021.45
2023-05-20T03:57:38.080Z,1021.46
2023-05-20T03:58:38.075Z,1021.49
2023-05-20T03:59:38.068Z,1021.49
2023-05-20T04:00:38.064Z,1021.48
2023-05-20T04:01:38.128Z,1021.48
2023-05-20T04:02:38.144Z,1021.46
2023-05-20T04:03:38.119Z,1021.45
2023-05-20T04:04:38.051Z,1021.47
2023-05-20T04:05:38.055Z,1021.45
2023-05-20T04:06:38.063Z,1021.49
2023-05-20T04:07:38.065Z,1021.51
2023-05-20T04:08:38.053Z,1021.48
2023-05-20T04:09:38.035Z,1021.47
2023-05-20T04:10:38.036Z,1021.44
2023-05-20T04:11:38.028Z,1021.43
2023-05-20T04:12:38.032Z,1021.43
2023-05-20T04:13:38.020Z,1021.39
2023-05-20T04:14:38.031Z,1021.39
2023-05-20T04:15:38.020Z,1021.34
2023-05-20T04:16:38.037Z,1021.36
2023-05-20T04:17:38.020Z,1021.33
2023-05-20T04:18:38.016Z,1021.33
2023-05-20T04:19:38.034Z,1021.31
2023-05-20T04:20:38.013Z,1021.33
2023-05-20T04:21:38.002Z,1021.30
2023-05-20T04:22:38.001Z,1021.32
2023-05-20T04:23:37.993Z,1021.29
2023-05-20T04:24:38.002Z,1021.34
2023-05-20T04:25:38.075Z,1021.33
2023-05-20T04:26:37.988Z,1021.37
2023-05-20T04:27:37.978Z,1021.33
2023-05-20T04:28:37.977Z,1021.36
2023-05-20T04:29:37.974Z,1021.33
2023-05-20T04:30:37.969Z,1021.31
2023-05-20T04:31:37.986Z,1021.34
2023-05-20T04:32:37.988Z,1021.36
2023-05-20T04:33:38.012Z,1021.35
2023-05-20T04:34:37.965Z,1021.38
2023-05-20T04:35:37.962Z,1021.32
2023-05-20T04:36:37.948Z,1021.36
2023-05-20T04:37:37.973Z,1021.38
2023-05-20T04:38:37.948Z,1021.40
2023-05-20T04:39:37.940Z,1021.42
2023-05-20T04:40:37.944Z,1021.43
2023-05-20T04:41:37.938Z,1021.45
2023-05-20T04:42:38.038Z,1021.42
2023-05-20T04:43:37.939Z,1021.43
2023-05-20T04:44:37.958Z,1021.43
2023-05-20T04:45:37.948Z,1021.47
2023-05-20T04:46:37.937Z,1021.45
2023-05-20T04:47:37.965Z,1021.41
2023-05-20T04:48:37.922Z,1021.46
2023-05-20T04:49:37.918Z,1021.44
2023-05-20T04:50:37.930Z,1021.45
2023-05-20T04:51:37.915Z,1021.43
2023-05-20T04:52:37.898Z,1021.41
2023-05-20T04:53:37.900Z,1021.44
2023-05-20T04:54:37.895Z,1021.43
2023-05-20T04:55:37.889Z,1021.42
2023-05-20T04:56:37.898Z,1021.36
2023-05-20T04:57:37.887Z,1021.33
2023-05-20T04:58:37.888Z,1021.37
2023-05-20T04:59:37.877Z,1021.37
2023-05-20T05:00:37.879Z,1021.40
2023-05-20T05:01:37.974Z,1021.36
2023-05-20T05:02:37.928Z,1021.42
2023-05-20T05:03:37.864Z,1021.36
2023-05-20T05:04:37.891Z,1021.35
2023-05-20T05:05:37.864Z,1021.34
2023-05-20T05:06:37.893Z,1021.33
2023-05-20T05:07:37.874Z,1021.29
2023-05-20T05:08:37.868Z,1021.33
2023-05-20T05:09:37.849Z,1021.27
2023-05-20T05:10:37.857Z,1021.35
2023-05-20T05:11:37.843Z,1021.30
2023-05-20T05:12:37.850Z,1021.32
2023-05-20T05:13:37.848Z,1021.29
2023-05-20T05:14:37.849Z,1021.33
2023-05-20T05:15:37.908Z,1021.30
2023-05-20T05:16:37.844Z,1021.32
2023-05-20T05:17:37.862Z,1021.33
2023-05-20T05:18:37.836Z,1021.32
2023-05-20T05:19:37.816Z,1021.29
2023-05-20T05:20:37.821Z,1021.30
2023-05-20T05:21:37.818Z,1021.31
2023-05-20T05:22:37.811Z,1021.35
2023-05-20T05:23:37.801Z,1021.30
2023-05-20T05:24:37.805Z,1021.30
2023-05-20T05:25:37.809Z,1021.34
2023-05-20T05:26:37.811Z,1021.29
2023-05-20T05:27:37.802Z,1021.35
2023-05-20T05:28:37.889Z,1021.34
2023-05-20T05:29:37.806Z,1021.33
2023-05-20T05:30:37.837Z,1021.31
2023-05-20T05:31:37.790Z,1021.30
2023-05-20T05:32:37.894Z,1021.32
2023-05-20T05:33:37.815Z,1021.34
2023-05-20T05:34:37.798Z,1021.40
2023-05-20T05:35:37.768Z,1021.34
2023-05-20T05:36:37.768Z,1021.34
2023-05-20T05:37:37.822Z,1021.35
2023-05-20T05:38:37.758Z,1021.31
2023-05-20T05:39:37.848Z,1021.27
2023-05-20T05:40:37.751Z,1021.21
2023-05-20T05:41:37.745Z,1021.27
2023-05-20T05:42:37.747Z,1021.25
2023-05-20T05:43:37.740Z,1021.25
2023-05-20T05:44:37.745Z,1021.23
2023-05-20T05:45:37.781Z,1021.25
2023-05-20T05:46:37.775Z,1021.19
2023-05-20T05:47:37.846Z,1021.21
2023-05-20T05:48:37.724Z,1021.27
2023-05-20T05:49:37.740Z,1021.23
2023-05-20T05:50:37.735Z,1021.20
2023-05-20T05:51:39.018Z,1021.22
2023-05-20T05:52:37.718Z,1021.23
2023-05-20T05:53:37.710Z,1021.19
2023-05-20T05:54:37.711Z,1021.23
2023-05-20T05:55:37.714Z,1021.20
2023-05-20T05:56:37.710Z,1021.19
2023-05-20T05:57:37.701Z,1021.18
2023-05-20T05:58:37.709Z,1021.17
2023-05-20T05:59:37.730Z,1021.17
2023-05-20T06:00:37.743Z,1021.18
2023-05-20T06:01:37.733Z,1021.17
2023-05-20T06:02:37.923Z,1021.19
2023-05-20T06:03:37.831Z,1021.22
2023-05-20T06:04:37.695Z,1021.15
2023-05-20T06:05:37.706Z,1021.17
2023-05-20T06:06:37.671Z,1021.18
2023-05-20T06:07:37.674Z,1021.17
2023-05-20T06:08:37.670Z,1021.15
2023-05-20T06:09:37.660Z,1021.13
2023-05-20T06:10:37.673Z,1021.11
2023-05-20T06:11:44.857Z,1021.11
2023-05-20T06:13:41.697Z,1021.11
2023-05-20T06:14:41.698Z,1021.14
2023-05-20T06:16:45.681Z,1021.07
2023-05-20T06:17:45.685Z,1021.06
2023-05-20T06:19:38.876Z,1021.04
2023-05-20T06:20:38.764Z,1020.99
2023-05-20T06:22:31.703Z,1021.04
2023-05-20T06:23:31.681Z,1021.12
2023-05-20T06:25:35.781Z,1021.10
2023-05-20T06:26:35.660Z,1021.13
2023-05-20T06:28:40.295Z,1021.12
2023-05-20T06:29:40.928Z,1021.15
2023-05-20T06:31:43.857Z,1021.14
2023-05-20T06:32:43.892Z,1021.13
2023-05-20T06:34:47.806Z,1021.16
2023-05-20T06:35:47.829Z,1021.15
2023-05-20T06:37:51.912Z,1021.16
2023-05-20T06:38:51.808Z,1021.15
2023-05-20T06:40:55.824Z,1021.15
2023-05-20T06:41:55.824Z,1021.13
2023-05-20T06:43:59.834Z,1021.22
2023-05-20T06:44:59.799Z,1021.24
2023-05-20T06:45:59.850Z,1021.19
2023-05-20T06:46:59.832Z,1021.22
2023-05-20T06:47:59.814Z,1021.19
2023-05-20T06:48:59.813Z,1021.20
2023-05-20T06:49:59.777Z,1021.17
2023-05-20T06:50:59.791Z,1021.20
2023-05-20T06:51:59.775Z,1021.16
2023-05-20T06:52:59.770Z,1021.22
2023-05-20T06:53:59.777Z,1021.24
2023-05-20T06:54:59.776Z,1021.22
2023-05-20T06:55:59.774Z,1021.21
2023-05-20T06:56:59.758Z,1021.21
2023-05-20T06:57:59.770Z,1021.23
2023-05-20T06:58:59.760Z,1021.20
2023-05-20T06:59:59.751Z,1021.23
2023-05-20T07:00:59.748Z,1021.24
2023-05-20T07:01:59.786Z,1021.27
2023-05-20T07:02:59.795Z,1021.27
2023-05-20T07:03:59.786Z,1021.30
2023-05-20T07:04:59.742Z,1021.31
2023-05-20T07:05:59.771Z,1021.29
2023-05-20T07:06:59.737Z,1021.29
2023-05-20T07:07:59.729Z,1021.28
2023-05-20T07:08:59.771Z,1021.25
2023-05-20T07:09:59.749Z,1021.25
2023-05-20T07:10:59.727Z,1021.22
2023-05-20T07:11:59.722Z,1021.27
2023-05-20T07:12:59.729Z,1021.22
2023-05-20T07:13:59.717Z,1021.22
2023-05-20T07:14:59.715Z,1021.27
2023-05-20T07:15:59.782Z,1021.24
2023-05-20T07:16:59.709Z,1021.21
2023-05-20T07:17:59.750Z,1021.24
2023-05-20T07:18:59.766Z,1021.21
2023-05-20T07:19:59.752Z,1021.16
2023-05-20T07:20:59.695Z,1021.14
2023-05-20T07:21:59.701Z,1021.16
2023-05-20T07:22:59.832Z,1021.17
2023-05-20T07:23:59.702Z,1021.10
2023-05-20T07:24:59.688Z,1021.09
2023-05-20T07:25:59.714Z,1021.13
2023-05-20T07:26:59.696Z,1021.12
2023-05-20T07:27:59.771Z,1021.12
2023-05-20T07:28:59.684Z,1021.08
2023-05-20T07:29:59.703Z,1021.08
2023-05-20T07:30:59.673Z,1021.05
2023-05-20T07:31:59.759Z,1021.02
2023-05-20T07:32:59.701Z,1020.98
2023-05-20T07:33:59.668Z,1020.97
2023-05-20T07:34:59.675Z,1020.96
2023-05-20T07:35:59.669Z,1020.93
2023-05-20T07:36:59.656Z,1021.00
2023-05-20T07:37:59.659Z,1020.98
2023-05-20T07:39:03.608Z,1020.96
2023-05-20T07:39:59.655Z,1020.95
2023-05-20T07:40:59.670Z,1020.98
2023-05-20T07:41:59.677Z,1020.95
2023-05-20T07:42:59.643Z,1020.98
2023-05-20T07:43:59.670Z,1020.97
2023-05-20T07:44:59.640Z,1021.00
2023-05-20T07:45:59.682Z,1021.00
2023-05-20T07:46:59.629Z,1020.93
2023-05-20T07:47:59.728Z,1020.93
2023-05-20T07:48:59.680Z,1020.90
2023-05-20T07:49:59.669Z,1020.89
2023-05-20T07:50:59.642Z,1020.89
2023-05-20T07:52:01.509Z,1020.88
2023-05-20T07:52:59.636Z,1020.93
2023-05-20T07:53:59.623Z,1020.89
2023-05-20T07:54:59.661Z,1020.87
2023-05-20T07:55:59.618Z,1020.81
2023-05-20T07:56:59.626Z,1020.85
2023-05-20T07:57:59.607Z,1020.78
2023-05-20T07:58:59.727Z,1020.76
2023-05-20T07:59:59.612Z,1020.78
2023-05-20T08:00:59.625Z,1020.70
2023-05-20T08:01:59.639Z,1020.76
2023-05-20T08:02:59.719Z,1020.78
2023-05-20T08:03:59.794Z,1020.76
2023-05-20T08:04:59.603Z,1020.76
2023-05-20T08:05:59.635Z,1020.77
2023-05-20T08:06:59.593Z,1020.77
2023-05-20T08:07:59.729Z,1020.73
2023-05-20T08:08:59.658Z,1020.76
2023-05-20T08:09:59.594Z,1020.73
2023-05-20T08:10:59.596Z,1020.74
2023-05-20T08:11:59.640Z,1020.78
2023-05-20T08:12:59.583Z,1020.78
2023-05-20T08:13:59.590Z,1020.76
2023-05-20T08:14:59.615Z,1020.74
2023-05-20T08:15:59.608Z,1020.76
2023-05-20T08:16:59.601Z,1020.80
2023-05-20T08:17:59.620Z,1020.81
2023-05-20T08:18:59.753Z,1020.76
2023-05-20T08:19:59.581Z,1020.78
2023-05-20T08:20:59.577Z,1020.80
2023-05-20T08:21:59.604Z,1020.79
2023-05-20T08:22:59.565Z,1020.80
2023-05-20T08:23:59.577Z,1020.77
2023-05-20T08:24:59.583Z,1020.76
2023-05-20T08:25:59.556Z,1020.75
2023-05-20T08:26:59.593Z,1020.76
2023-05-20T08:27:59.557Z,1020.76
2023-05-20T08:28:59.582Z,1020.74
2023-05-20T08:30:00.977Z,1020.70
2023-05-20T08:30:59.586Z,1020.74
2023-05-20T08:31:59.547Z,1020.65
2023-05-20T08:32:59.598Z,1020.66
2023-05-20T08:33:59.554Z,1020.61
2023-05-20T08:34:59.553Z,1020.68
2023-05-20T08:35:59.539Z,1020.59
2023-05-20T08:36:59.548Z,1020.58
2023-05-20T08:37:59.545Z,1020.54
2023-05-20T08:38:59.540Z,1020.53
2023-05-20T08:39:59.544Z,1020.50
2023-05-20T08:41:00.815Z,1020.45
2023-05-20T08:41:59.545Z,1020.45
2023-05-20T08:42:59.543Z,1020.51
2023-05-20T08:43:59.544Z,1020.47
2023-05-20T08:44:59.549Z,1020.51
2023-05-20T08:45:59.557Z,1020.52
2023-05-20T08:46:59.613Z,1020.50
2023-05-20T08:47:59.604Z,1020.54
2023-05-20T08:48:59.531Z,1020.52
2023-05-20T08:49:59.529Z,1020.59
2023-05-20T08:50:59.525Z,1020.52
2023-05-20T08:51:59.548Z,1020.47
2023-05-20T08:52:59.537Z,1020.52
2023-05-20T08:53:59.531Z,1020.49
2023-05-20T08:54:59.546Z,1020.53
2023-05-20T08:56:01.353Z,1020.52
2023-05-20T08:56:59.510Z,1020.54
2023-05-20T08:57:59.580Z,1020.55
2023-05-20T08:58:59.520Z,1020.51
2023-05-20T08:59:59.524Z,1020.59
2023-05-20T09:00:59.521Z,1020.59
2023-05-20T09:01:59.531Z,1020.54
2023-05-20T09:03:00.977Z,1020.55
2023-05-20T09:03:59.520Z,1020.53
2023-05-20T09:04:59.517Z,1020.52
2023-05-20T09:05:59.509Z,1020.56
2023-05-20T09:06:59.502Z,1020.58
2023-05-20T09:07:59.501Z,1020.53
2023-05-20T09:08:59.526Z,1020.56
2023-05-20T09:09:59.505Z,1020.55
2023-05-20T09:10:59.499Z,1020.57
2023-05-20T09:11:59.501Z,1020.60
2023-05-20T09:12:59.486Z,1020.60
2023-05-20T09:13:59.503Z,1020.60
2023-05-20T09:14:59.484Z,1020.59
2023-05-20T09:15:59.642Z,1020.56
2023-05-20T09:16:59.498Z,1020.54
2023-05-20T09:17:59.550Z,1020.53
2023-05-20T09:18:59.557Z,1020.59
2023-05-20T09:19:59.498Z,1020.51
2023-05-20T09:20:59.503Z,1020.50
2023-05-20T09:21:59.480Z,1020.49
2023-05-20T09:22:59.485Z,1020.43
2023-05-20T09:23:59.476Z,1020.49
2023-05-20T09:24:59.467Z,1020.43
2023-05-20T09:25:59.478Z,1020.42
2023-05-20T09:26:59.472Z,1020.42
2023-05-20T09:27:59.484Z,1020.42
2023-05-20T09:28:59.465Z,1020.41
2023-05-20T09:29:59.470Z,1020.44
2023-05-20T09:30:59.460Z,1020.45
2023-05-20T09:31:59.528Z,1020.42
2023-05-20T09:32:59.542Z,1020.44
2023-05-20T09:33:59.455Z,1020.43
2023-05-20T09:34:59.461Z,1020.43
2023-05-20T09:35:59.506Z,1020.39
2023-05-20T09:36:59.460Z,1020.38
2023-05-20T09:37:59.472Z,1020.39
2023-05-20T09:38:59.474Z,1020.40
2023-05-20T09:39:59.447Z,1020.40
2023-05-20T09:40:59.454Z,1020.45
2023-05-20T09:41:59.763Z,1020.44
2023-05-20T09:42:59.437Z,1020.46
2023-05-20T09:43:59.442Z,1020.49
2023-05-20T09:44:59.442Z,1020.53
2023-05-20T09:45:59.472Z,1020.48
2023-05-20T09:46:59.533Z,1020.47
2023-05-20T09:47:59.479Z,1020.43
2023-05-20T09:48:59.440Z,1020.50
2023-05-20T09:49:59.445Z,1020.46
2023-05-20T09:50:59.446Z,1020.44
2023-05-20T09:51:59.440Z,1020.44
2023-05-20T09:52:59.454Z,1020.49
2023-05-20T09:53:59.424Z,1020.42
2023-05-20T09:54:59.425Z,1020.47
2023-05-20T09:55:59.494Z,1020.45
2023-05-20T09:56:59.426Z,1020.39
2023-05-20T09:57:59.423Z,1020.37
2023-05-20T09:58:59.425Z,1020.34
2023-05-20T09:59:59.436Z,1020.42
2023-05-20T10:00:59.479Z,1020.40
2023-05-20T10:01:59.486Z,1020.41
2023-05-20T10:02:59.622Z,1020.41
2023-05-20T10:03:59.453Z,1020.38
2023-05-20T10:04:59.414Z,1020.38
2023-05-20T10:05:59.410Z,1020.42
2023-05-20T10:06:59.414Z,1020.42
2023-05-20T10:07:59.417Z,1020.37
2023-05-20T10:08:59.408Z,1020.37
2023-05-20T10:09:59.413Z,1020.35
2023-05-20T10:10:59.407Z,1020.35
2023-05-20T10:11:59.398Z,1020.34
2023-05-20T10:12:59.416Z,1020.35
2023-05-20T10:13:59.399Z,1020.34
2023-05-20T10:14:59.421Z,1020.32
2023-05-20T10:15:59.525Z,1020.33
2023-05-20T10:16:59.396Z,1020.34
2023-05-20T10:17:59.446Z,1020.29
2023-05-20T10:18:59.462Z,1020.23
2023-05-20T10:19:59.405Z,1020.30
2023-05-20T10:20:59.386Z,1020.35
2023-05-20T10:21:59.419Z,1020.34
2023-05-20T10:22:59.403Z,1020.31
2023-05-20T10:24:01.538Z,1020.32
2023-05-20T10:24:59.393Z,1020.31
2023-05-20T10:25:59.409Z,1020.35
2023-05-20T10:26:59.389Z,1020.35
2023-05-20T10:27:59.374Z,1020.32
2023-05-20T10:28:59.381Z,1020.35
2023-05-20T10:29:59.403Z,1020.36
2023-05-20T10:30:59.376Z,1020.30
2023-05-20T10:31:59.402Z,1020.28
2023-05-20T10:32:59.565Z,1020.28
2023-05-20T10:33:59.364Z,1020.27
2023-05-20T10:34:59.406Z,1020.25
2023-05-20T10:35:59.364Z,1020.27
2023-05-20T10:36:59.367Z,1020.25
2023-05-20T10:37:59.366Z,1020.23
2023-05-20T10:38:59.469Z,1020.27
2023-05-20T10:39:59.374Z,1020.19
2023-05-20T10:40:59.366Z,1020.28
2023-05-20T10:41:59.374Z,1020.24
2023-05-20T10:42:59.363Z,1020.22
2023-05-20T10:43:59.357Z,1020.19
2023-05-20T10:44:59.363Z,1020.16
2023-05-20T10:45:59.358Z,1020.13
2023-05-20T10:47:20.511Z,1020.06
2023-05-20T10:47:59.417Z,1020.07
2023-05-20T10:48:59.482Z,1020.07
2023-05-20T10:49:59.356Z,1020.06
2023-05-20T10:50:59.373Z,1020.09
2023-05-20T10:51:59.350Z,1020.04
2023-05-20T10:52:59.355Z,1020.10
2023-05-20T10:53:59.353Z,1020.08
2023-05-20T10:54:59.363Z,1020.06
2023-05-20T10:55:59.370Z,1020.06
2023-05-20T10:56:59.387Z,1020.05
2023-05-20T10:57:59.350Z,1020.07
2023-05-20T10:58:59.358Z,1020.08
2023-05-20T10:59:59.356Z,1020.07
2023-05-20T11:00:59.395Z,1020.01
2023-05-20T11:01:59.355Z,1020.03
2023-05-20T11:02:59.431Z,1020.02
2023-05-20T11:03:59.395Z,1020.00
2023-05-20T11:04:59.386Z,1019.99
2023-05-20T11:05:59.351Z,1020.01
2023-05-20T11:06:59.351Z,1019.98
2023-05-20T11:07:59.388Z,1019.98
2023-05-20T11:08:59.355Z,1019.95
2023-05-20T11:09:59.351Z,1019.97
2023-05-20T11:10:59.382Z,1019.85
2023-05-20T11:11:59.347Z,1019.82
2023-05-20T11:12:59.405Z,1019.84
2023-05-20T11:13:59.358Z,1019.81
2023-05-20T11:14:59.352Z,1019.83
2023-05-20T11:15:59.344Z,1019.85
2023-05-20T11:16:59.416Z,1019.85
2023-05-20T11:17:59.373Z,1019.91
2023-05-20T11:18:59.427Z,1019.91
2023-05-20T11:19:59.353Z,1019.86
2023-05-20T11:20:59.364Z,1019.87
2023-05-20T11:21:59.371Z,1019.82
2023-05-20T11:22:59.354Z,1019.79
2023-05-20T11:23:59.375Z,1019.83
2023-05-20T11:24:59.364Z,1019.74
2023-05-20T11:25:59.344Z,1019.74
2023-05-20T11:26:59.371Z,1019.82
2023-05-20T11:27:59.346Z,1019.79
2023-05-20T11:29:01.316Z,1019.74
2023-05-20T11:29:59.350Z,1019.73
2023-05-20T11:30:59.353Z,1019.76
2023-05-20T11:31:59.427Z,1019.74
2023-05-20T11:32:59.415Z,1019.68
2023-05-20T11:33:59.351Z,1019.71
2023-05-20T11:34:59.361Z,1019.64
2023-05-20T11:35:59.354Z,1019.67
2023-05-20T11:36:59.343Z,1019.74
2023-05-20T11:37:59.352Z,1019.70
2023-05-20T11:38:59.358Z,1019.74
2023-05-20T11:39:59.347Z,1019.72
2023-05-20T11:40:59.595Z,1019.68
2023-05-20T11:41:59.346Z,1019.75
2023-05-20T11:42:59.346Z,1019.68
2023-05-20T11:43:59.382Z,1019.64
2023-05-20T11:44:59.509Z,1019.69
2023-05-20T11:45:59.597Z,1019.67
2023-05-20T11:46:59.381Z,1019.57
2023-05-20T11:47:59.399Z,1019.69
2023-05-20T11:48:59.348Z,1019.67
2023-05-20T11:49:59.346Z,1019.58
2023-05-20T11:51:01.925Z,1019.60
2023-05-20T11:51:59.350Z,1019.61
2023-05-20T11:52:59.350Z,1019.60
2023-05-20T11:53:59.350Z,1019.55
2023-05-20T11:54:59.352Z,1019.59
2023-05-20T11:55:59.347Z,1019.59
2023-05-20T11:56:59.347Z,1019.61
2023-05-20T11:57:59.341Z,1019.62
2023-05-20T11:58:59.355Z,1019.66
2023-05-20T11:59:59.358Z,1019.64
2023-05-20T12:01:05.779Z,1019.61
2023-05-20T12:01:59.347Z,1019.51
2023-05-20T12:02:59.447Z,1019.51
2023-05-20T12:03:59.467Z,1019.48
2023-05-20T12:04:59.475Z,1019.48
2023-05-20T12:05:59.416Z,1019.48
2023-05-20T12:06:59.354Z,1019.46
2023-05-20T12:07:59.353Z,1019.42
2023-05-20T12:08:59.353Z,1019.35
2023-05-20T12:09:59.367Z,1019.43
2023-05-20T12:10:59.364Z,1019.35
2023-05-20T12:11:59.388Z,1019.31
2023-05-20T12:13:06.523Z,1019.37
2023-05-20T12:15:03.374Z,1019.28
2023-05-20T12:16:03.370Z,1019.34
2023-05-20T12:18:07.517Z,1019.30
2023-05-20T12:19:07.416Z,1019.40